Time;durP1;ratioP1;P1;durP2;ratioP2;P2;SDS_P1;SDS_P2;PMS_P1;PMS_P2;Temp;Humidity;BMP_temperature;BMP_pressure;BME280_temperature;BME280_humidity;BME280_pressure;Samples;Min_cycle;Max_cycle;Signal;HPM_P1;HPM_P2
2022/11/04 00:01:25;;;;;;;4.95;3.55;;;11.70;99.90;;;;;;5025637;28;20022;-86
2022/11/04 00:03:52;;;;;;;6.47;3.65;;;11.60;99.90;;;;;;5029837;28;20065;-85
2022/11/04 00:06:18;;;;;;;9.85;3.95;;;11.60;99.90;;;;;;5025469;28;20025;-85
2022/11/04 00:08:48;;;;;;;12.50;4.15;;;11.60;99.90;;;;;;5033703;28;20037;-86
2022/11/04 00:13:58;;;;;;;7.32;3.55;;;11.60;99.90;;;;;;5032695;28;20525;-86
2022/11/04 00:19:07;;;;;;;10.30;3.90;;;11.60;99.90;;;;;;5029301;28;20036;-86
2022/11/04 00:29:48;;;;;;;11.85;4.78;;;11.60;99.90;;;;;;5020001;28;20520;-83
2022/11/04 00:34:57;;;;;;;8.38;3.50;;;11.60;99.90;;;;;;5030987;28;20481;-86
2022/11/04 00:37:23;;;;;;;12.35;3.88;;;11.60;99.90;;;;;;5027646;28;20025;-85
2022/11/04 00:39:49;;;;;;;8.20;4.47;;;11.60;99.90;;;;;;5029581;28;20029;-85
2022/11/04 00:42:14;;;;;;;6.88;3.67;;;11.60;99.90;;;;;;5031796;28;20311;-85
2022/11/04 00:44:40;;;;;;;13.27;4.93;;;11.60;99.90;;;;;;5032357;28;20025;-86
2022/11/04 00:47:05;;;;;;;8.25;4.50;;;11.60;99.90;;;;;;5031215;28;20029;-85
2022/11/04 00:49:31;;;;;;;10.10;4.90;;;11.60;99.90;;;;;;5031457;28;20041;-83
2022/11/04 00:51:56;;;;;;;9.13;4.05;;;11.60;99.90;;;;;;5027354;28;20040;-86
2022/11/04 00:54:22;;;;;;;7.45;4.15;;;11.70;99.90;;;;;;5028386;28;20529;-86
2022/11/04 00:56:47;;;;;;;10.13;4.90;;;11.60;99.90;;;;;;5030220;28;20045;-87
2022/11/04 00:59:13;;;;;;;10.70;4.82;;;11.60;99.90;;;;;;5034089;28;20029;-86
2022/11/04 01:01:39;;;;;;;8.93;4.10;;;11.60;99.90;;;;;;5037006;28;20029;-85
2022/11/04 01:04:05;;;;;;;8.15;3.70;;;11.60;99.90;;;;;;5035287;28;20032;-86
2022/11/04 01:06:31;;;;;;;4.90;3.35;;;11.60;99.90;;;;;;5039922;28;20437;-86
2022/11/04 01:08:58;;;;;;;7.47;3.55;;;11.50;99.90;;;;;;5034232;28;20490;-85
2022/11/04 01:11:27;;;;;;;5.57;3.60;;;11.50;99.90;;;;;;5035282;28;20036;-86
2022/11/04 01:13:53;;;;;;;12.98;4.20;;;11.50;99.90;;;;;;5028434;28;20466;-86
2022/11/04 01:16:19;;;;;;;6.40;4.00;;;11.50;99.90;;;;;;5028650;28;20045;-86
2022/11/04 01:18:44;;;;;;;5.22;3.20;;;11.50;99.90;;;;;;5039329;28;20030;-86
2022/11/04 01:21:12;;;;;;;13.13;4.55;;;11.50;99.90;;;;;;5027755;28;20025;-86
2022/11/04 01:23:38;;;;;;;5.93;4.13;;;11.40;99.90;;;;;;5037332;28;20034;-86
2022/11/04 01:26:25;;;;;;;6.20;4.07;;;11.40;99.90;;;;;;5029774;28;20022;-85
2022/11/04 01:28:53;;;;;;;8.25;4.57;;;11.40;99.90;;;;;;5028855;28;20037;-86
2022/11/04 01:31:21;;;;;;;9.18;4.40;;;11.40;99.90;;;;;;5034312;28;20057;-86
2022/11/04 01:33:48;;;;;;;10.20;4.53;;;11.40;99.90;;;;;;5031726;28;20028;-85
2022/11/04 01:36:14;;;;;;;11.30;4.70;;;11.40;99.90;;;;;;5026765;28;20028;-86
2022/11/04 01:38:39;;;;;;;11.40;4.75;;;11.30;99.90;;;;;;5030293;28;20397;-85
2022/11/04 01:41:07;;;;;;;11.15;3.95;;;11.40;99.90;;;;;;5032355;28;20445;-86
2022/11/04 01:43:44;;;;;;;12.23;5.35;;;11.40;99.90;;;;;;5032849;28;20536;-87
2022/11/04 01:46:22;;;;;;;9.32;4.22;;;11.30;99.90;;;;;;5027639;28;20040;-86
2022/11/04 01:48:48;;;;;;;6.55;3.83;;;11.40;99.90;;;;;;5025779;28;20034;-86
2022/11/04 01:51:14;;;;;;;12.90;4.45;;;11.30;99.90;;;;;;5031104;28;20453;-85
2022/11/04 01:53:42;;;;;;;8.93;4.60;;;11.30;99.90;;;;;;5029545;28;20260;-85
2022/11/04 01:56:11;;;;;;;7.57;4.55;;;11.30;99.90;;;;;;5032004;28;20025;-86
2022/11/04 01:58:42;;;;;;;7.68;4.55;;;11.30;99.90;;;;;;5026269;28;20333;-86
2022/11/04 02:01:10;;;;;;;7.80;4.45;;;11.30;99.90;;;;;;5027191;28;20061;-86
2022/11/04 02:03:40;;;;;;;8.30;4.05;;;11.30;99.90;;;;;;5033458;28;20193;-86
2022/11/04 02:06:07;;;;;;;9.45;4.53;;;11.30;99.90;;;;;;5030110;28;20040;-86
2022/11/04 02:08:34;;;;;;;11.65;4.10;;;11.30;99.90;;;;;;5037496;28;20075;-86
2022/11/04 02:11:02;;;;;;;5.50;3.60;;;11.30;99.90;;;;;;5028487;28;20398;-86
2022/11/04 02:13:31;;;;;;;10.90;4.40;;;11.30;99.90;;;;;;5034017;28;20095;-86
2022/11/04 02:16:20;;;;;;;9.48;4.95;;;11.30;99.90;;;;;;5028946;28;20029;-85
2022/11/04 02:19:22;;;;;;;6.88;3.72;;;11.40;99.90;;;;;;5029579;28;20030;-86
2022/11/04 02:21:48;;;;;;;11.30;4.57;;;11.30;99.90;;;;;;5026751;28;20109;-86
2022/11/04 02:25:05;;;;;;;7.18;3.85;;;11.30;99.90;;;;;;5031124;28;20121;-87
2022/11/04 02:27:49;;;;;;;6.93;3.92;;;11.30;99.90;;;;;;4993945;28;20168;-86
2022/11/04 02:30:16;;;;;;;7.45;3.72;;;11.30;99.90;;;;;;5026428;28;20363;-86
2022/11/04 02:33:09;;;;;;;5.10;3.50;;;11.30;99.90;;;;;;5031331;28;20066;-86
2022/11/04 02:35:50;;;;;;;18.00;5.10;;;11.30;99.90;;;;;;5025703;28;20045;-86
2022/11/04 02:38:29;;;;;;;9.63;4.50;;;11.30;99.90;;;;;;5023236;28;20044;-86
2022/11/04 02:41:13;;;;;;;9.45;4.85;;;11.30;99.90;;;;;;5031245;28;20322;-86
2022/11/04 02:43:47;;;;;;;8.48;4.50;;;11.30;99.90;;;;;;5027666;28;20029;-85
2022/11/04 02:46:22;;;;;;;17.80;5.95;;;11.40;99.90;;;;;;5028329;28;20052;-86
2022/11/04 02:49:11;;;;;;;8.02;4.45;;;11.40;99.90;;;;;;5035204;28;20068;-86
2022/11/04 02:51:58;;;;;;;6.60;4.43;;;11.30;99.90;;;;;;5024340;28;20033;-86
2022/11/04 02:54:33;;;;;;;10.30;4.40;;;11.30;99.90;;;;;;5021655;28;20113;-87
2022/11/04 02:57:02;;;;;;;13.45;6.53;;;11.40;99.90;;;;;;5031312;28;20439;-85
2022/11/04 02:59:28;;;;;;;11.60;6.03;;;11.40;99.90;;;;;;5036076;28;20481;-85
2022/11/04 03:01:57;;;;;;;9.48;5.53;;;11.40;99.90;;;;;;5027429;28;20113;-84
2022/11/04 03:04:29;;;;;;;12.82;5.70;;;11.40;99.90;;;;;;5020750;28;20489;-86
2022/11/04 03:06:57;;;;;;;15.05;7.00;;;11.40;99.90;;;;;;5024122;28;20045;-85
2022/11/04 03:09:26;;;;;;;10.45;6.03;;;11.40;99.90;;;;;;5024581;28;20037;-87
2022/11/04 03:12:00;;;;;;;10.13;6.57;;;11.50;99.90;;;;;;5023693;28;20029;-86
2022/11/04 03:14:49;;;;;;;9.93;5.28;;;11.50;99.90;;;;;;5023470;28;20030;-86
2022/11/04 03:17:21;;;;;;;12.85;6.00;;;11.50;99.90;;;;;;5027418;28;20045;-87
2022/11/04 03:19:53;;;;;;;13.05;6.22;;;11.50;99.90;;;;;;5026414;28;20029;-83
2022/11/04 03:22:23;;;;;;;9.50;6.18;;;11.50;99.90;;;;;;5034549;28;20029;-86
2022/11/04 03:24:50;;;;;;;14.13;6.55;;;11.50;99.90;;;;;;5027846;28;20044;-86
2022/11/04 03:27:31;;;;;;;15.73;6.85;;;11.50;99.90;;;;;;5029436;28;20028;-87
2022/11/04 03:30:13;;;;;;;11.07;5.68;;;11.50;99.90;;;;;;5026421;28;20537;-85
2022/11/04 03:33:03;;;;;;;9.70;6.25;;;11.50;99.90;;;;;;5029411;28;20465;-86
2022/11/04 03:35:29;;;;;;;12.10;6.68;;;11.60;99.90;;;;;;5032322;28;20108;-85
2022/11/04 03:37:55;;;;;;;7.22;6.35;;;11.50;99.90;;;;;;5030297;28;20459;-85
2022/11/04 03:40:22;;;;;;;14.52;7.07;;;11.50;99.90;;;;;;5030642;28;20025;-86
2022/11/04 03:43:15;;;;;;;13.18;6.80;;;11.50;99.90;;;;;;5031182;28;20139;-86
2022/11/04 03:45:41;;;;;;;15.57;7.30;;;11.50;99.90;;;;;;5029017;28;20100;-85
2022/11/04 03:48:07;;;;;;;9.98;6.30;;;11.50;99.90;;;;;;5027921;28;20047;-85
2022/11/04 03:50:40;;;;;;;13.63;6.65;;;11.50;99.90;;;;;;5033923;28;20441;-85
2022/11/04 03:53:11;;;;;;;13.57;7.18;;;11.50;99.90;;;;;;5030739;28;20058;-82
2022/11/04 03:55:55;;;;;;;10.70;6.70;;;11.50;99.90;;;;;;5029073;28;20042;-86
2022/11/04 03:58:43;;;;;;;11.82;6.60;;;11.50;99.90;;;;;;5025135;28;20052;-82
2022/11/04 04:01:31;;;;;;;11.48;6.82;;;11.50;99.90;;;;;;5029967;28;20033;-87
2022/11/04 04:04:39;;;;;;;10.10;6.82;;;11.60;99.90;;;;;;5034018;28;20064;-86
2022/11/04 04:07:13;;;;;;;12.68;7.18;;;11.60;99.90;;;;;;5025867;28;20033;-87
2022/11/04 04:09:47;;;;;;;14.93;7.65;;;11.50;99.90;;;;;;5040584;28;20408;-86
2022/11/04 04:12:21;;;;;;;22.38;7.57;;;11.50;99.90;;;;;;5029633;28;20101;-86
2022/11/04 04:14:52;;;;;;;14.88;7.50;;;11.50;99.90;;;;;;5025883;28;20060;-85
2022/11/04 04:17:39;;;;;;;10.18;7.00;;;11.50;99.90;;;;;;5029047;28;20076;-85
2022/11/04 04:20:07;;;;;;;16.95;7.40;;;11.50;99.90;;;;;;5023117;28;20029;-85
2022/11/04 04:22:38;;;;;;;14.13;7.40;;;11.50;99.90;;;;;;5029473;28;20026;-87
2022/11/04 04:27:54;;;;;;;15.63;7.30;;;11.50;99.90;;;;;;5030525;28;20108;-86
2022/11/04 04:30:21;;;;;;;13.40;7.18;;;11.50;99.90;;;;;;5036813;28;20029;-86
2022/11/04 04:33:06;;;;;;;9.45;5.88;;;11.50;99.90;;;;;;5029652;28;20036;-85
2022/11/04 04:35:42;;;;;;;12.25;6.18;;;11.60;99.90;;;;;;5032964;28;20029;-86
2022/11/04 04:46:48;;;;;;;15.73;6.28;;;11.60;99.90;;;;;;5030893;28;20591;-86
2022/11/04 04:49:14;;;;;;;8.38;5.43;;;11.60;99.90;;;;;;5032957;28;20045;-86
2022/11/04 04:51:43;;;;;;;15.73;5.10;;;11.60;99.90;;;;;;5036067;28;20034;-89
2022/11/04 04:54:09;;;;;;;10.32;4.90;;;11.60;99.90;;;;;;5029163;28;20120;-86
2022/11/04 04:56:35;;;;;;;8.32;4.85;;;11.60;99.90;;;;;;5031126;28;20035;-84
2022/11/04 04:59:00;;;;;;;6.90;4.13;;;11.60;99.90;;;;;;5037107;28;20029;-85
2022/11/04 05:01:26;;;;;;;7.70;4.13;;;11.70;99.90;;;;;;5027581;28;20507;-84
2022/11/04 05:03:51;;;;;;;5.65;4.20;;;11.70;99.90;;;;;;5030653;28;20139;-84
2022/11/04 05:06:17;;;;;;;7.28;3.83;;;11.60;99.90;;;;;;5034748;28;20034;-86
2022/11/04 05:08:43;;;;;;;6.35;3.85;;;11.70;99.90;;;;;;5030737;28;20041;-85
2022/11/04 05:11:08;;;;;;;5.32;3.55;;;11.60;99.90;;;;;;5030960;28;20025;-85
2022/11/04 05:13:34;;;;;;;4.15;2.85;;;11.70;99.90;;;;;;5029599;28;20040;-86
2022/11/04 05:16:08;;;;;;;4.45;2.72;;;11.60;99.90;;;;;;5031902;28;20033;-85
2022/11/04 05:18:35;;;;;;;4.35;2.60;;;11.70;99.90;;;;;;5032583;28;20033;-85
2022/11/04 05:21:09;;;;;;;4.28;2.70;;;11.70;99.90;;;;;;5034580;28;20028;-85
2022/11/04 05:23:35;;;;;;;4.27;2.30;;;11.80;99.90;;;;;;5032899;28;20026;-84
2022/11/04 05:26:04;;;;;;;2.97;2.67;;;11.70;99.90;;;;;;5038239;28;20021;-82
2022/11/04 05:28:29;;;;;;;4.18;2.85;;;11.70;99.90;;;;;;5033647;28;20465;-85
2022/11/04 05:30:55;;;;;;;3.97;2.50;;;11.70;99.90;;;;;;5007997;28;20060;-86
2022/11/04 05:33:21;;;;;;;3.25;2.28;;;11.70;99.90;;;;;;5035250;28;21302;-85
2022/11/04 05:35:47;;;;;;;3.25;2.78;;;11.70;99.90;;;;;;5026546;28;20021;-85
2022/11/04 05:38:12;;;;;;;9.68;2.80;;;11.60;99.90;;;;;;5027716;28;20036;-85
2022/11/04 05:40:38;;;;;;;2.90;2.40;;;11.70;99.90;;;;;;5032673;28;20444;-84
2022/11/04 05:43:03;;;;;;;4.15;2.78;;;11.70;99.90;;;;;;5029599;28;20049;-83
2022/11/04 05:45:29;;;;;;;3.60;2.60;;;11.70;99.90;;;;;;5028913;28;20033;-84
2022/11/04 05:47:59;;;;;;;2.80;2.13;;;11.70;99.90;;;;;;5027717;28;20036;-84
2022/11/04 05:50:25;;;;;;;7.60;2.47;;;11.70;99.90;;;;;;5029353;28;20033;-85
2022/11/04 05:52:51;;;;;;;6.78;2.90;;;11.70;99.90;;;;;;5028616;28;20501;-85
2022/11/04 05:55:16;;;;;;;3.15;2.30;;;11.70;99.90;;;;;;5030393;28;20036;-84
2022/11/04 05:57:42;;;;;;;3.22;2.20;;;11.60;99.90;;;;;;5031064;28;20053;-81
2022/11/04 06:00:10;;;;;;;3.00;2.58;;;11.60;99.90;;;;;;5032153;28;20036;-85
2022/11/04 06:02:35;;;;;;;2.58;2.25;;;11.60;99.90;;;;;;5013135;28;20160;-85
2022/11/04 06:05:01;;;;;;;4.25;2.33;;;11.60;99.90;;;;;;5031374;28;20104;-84
2022/11/04 06:07:27;;;;;;;4.70;2.40;;;11.60;99.90;;;;;;5027105;28;20091;-82
2022/11/04 06:09:52;;;;;;;1.95;1.75;;;11.50;99.90;;;;;;5026920;28;20056;-85
2022/11/04 06:12:18;;;;;;;2.85;1.80;;;11.50;99.90;;;;;;5031779;28;20481;-83
2022/11/04 06:14:44;;;;;;;2.83;1.88;;;11.40;99.90;;;;;;5022562;28;20257;-85
2022/11/04 06:17:15;;;;;;;1.67;1.58;;;11.40;99.90;;;;;;5025289;28;20121;-84
2022/11/04 06:19:40;;;;;;;1.92;1.83;;;11.40;99.90;;;;;;5027653;28;20485;-85
2022/11/04 06:22:06;;;;;;;2.63;1.80;;;11.30;99.90;;;;;;5027063;28;20025;-85
2022/11/04 06:24:31;;;;;;;4.57;1.85;;;11.30;99.90;;;;;;5032961;28;20450;-85
2022/11/04 06:26:57;;;;;;;2.35;1.45;;;11.30;99.90;;;;;;5023982;28;20045;-84
2022/11/04 06:29:23;;;;;;;2.13;1.13;;;11.30;99.90;;;;;;5030332;28;20044;-86
2022/11/04 06:31:48;;;;;;;4.82;2.40;;;11.20;99.90;;;;;;5020806;28;20075;-86
2022/11/04 06:34:14;;;;;;;1.35;1.23;;;11.20;99.90;;;;;;5017310;28;20469;-85
2022/11/04 06:36:39;;;;;;;3.78;1.15;;;11.20;99.90;;;;;;5023791;28;20030;-85
2022/11/04 06:39:05;;;;;;;1.10;1.00;;;11.20;99.90;;;;;;5029820;28;20025;-85
2022/11/04 06:41:30;;;;;;;6.35;1.58;;;11.20;99.90;;;;;;5026996;28;20333;-85
2022/11/04 06:43:56;;;;;;;1.17;1.08;;;11.30;99.90;;;;;;5021657;28;20025;-86
2022/11/04 06:46:34;;;;;;;1.45;1.08;;;11.30;99.90;;;;;;5034732;28;20419;-86
2022/11/04 06:49:00;;;;;;;2.15;0.98;;;11.30;99.90;;;;;;5028893;28;20353;-85
2022/11/04 06:51:25;;;;;;;2.88;1.10;;;11.20;99.90;;;;;;5024616;28;20045;-85
2022/11/04 06:53:54;;;;;;;1.45;1.10;;;11.20;99.90;;;;;;5026651;28;20025;-84
2022/11/04 06:56:20;;;;;;;1.00;0.90;;;11.20;99.90;;;;;;5038085;22;20353;-83
2022/11/04 06:58:50;;;;;;;1.73;1.30;;;11.20;99.90;;;;;;5019794;28;20113;-86
2022/11/04 07:01:18;;;;;;;5.55;0.95;;;11.20;99.90;;;;;;5027025;28;20041;-84
2022/11/04 07:03:47;;;;;;;1.33;0.90;;;11.20;99.90;;;;;;5023756;28;20094;-86
2022/11/04 07:06:12;;;;;;;2.10;1.10;;;11.20;99.90;;;;;;5031713;28;20047;-87
2022/11/04 07:08:39;;;;;;;3.13;1.10;;;11.20;99.90;;;;;;5042897;28;20045;-85
2022/11/04 07:11:08;;;;;;;1.85;1.00;;;11.30;99.90;;;;;;5022026;28;20033;-82
2022/11/04 07:13:34;;;;;;;5.22;1.23;;;11.20;99.90;;;;;;5021141;28;20482;-86
2022/11/04 07:16:02;;;;;;;2.58;0.90;;;11.20;99.90;;;;;;5023542;28;20042;-86
2022/11/04 07:18:28;;;;;;;0.98;0.88;;;11.20;99.90;;;;;;5023103;28;20508;-86
2022/11/04 07:20:53;;;;;;;1.23;1.10;;;11.20;99.90;;;;;;5023340;28;20029;-86
2022/11/04 07:23:19;;;;;;;4.20;1.25;;;11.20;99.90;;;;;;5025223;28;20115;-85
2022/11/04 07:25:44;;;;;;;1.55;1.23;;;11.20;99.90;;;;;;5024715;28;20474;-86
2022/11/04 07:28:10;;;;;;;4.32;1.48;;;11.30;99.90;;;;;;5022406;28;20036;-88
2022/11/04 07:30:36;;;;;;;3.78;1.65;;;11.30;99.90;;;;;;5023641;28;20535;-85
2022/11/04 07:33:02;;;;;;;1.67;1.35;;;11.30;99.90;;;;;;5020658;28;20018;-86
2022/11/04 07:35:27;;;;;;;2.60;1.33;;;11.20;99.90;;;;;;5020275;28;20445;-85
2022/11/04 07:37:54;;;;;;;4.50;1.00;;;11.20;99.90;;;;;;5024898;28;20052;-85
2022/11/04 07:40:19;;;;;;;4.80;1.20;;;11.20;99.90;;;;;;5026860;28;20112;-86
2022/11/04 07:42:45;;;;;;;1.80;1.20;;;11.20;99.90;;;;;;5021721;28;20446;-86
2022/11/04 07:45:11;;;;;;;1.23;0.90;;;11.20;99.90;;;;;;5020829;28;20033;-85
2022/11/04 07:47:36;;;;;;;1.15;1.13;;;11.20;99.90;;;;;;5015251;28;20030;-85
2022/11/04 07:50:02;;;;;;;1.17;1.08;;;11.10;99.90;;;;;;5021451;28;20038;-83
2022/11/04 07:52:27;;;;;;;2.13;1.05;;;11.10;99.90;;;;;;5022635;28;20086;-86
2022/11/04 07:54:53;;;;;;;0.90;0.90;;;11.10;99.90;;;;;;5028597;28;20049;-86
2022/11/04 07:57:18;;;;;;;1.50;0.70;;;11.10;99.90;;;;;;5032998;28;20049;-85
2022/11/04 07:59:44;;;;;;;1.48;1.00;;;11.10;99.90;;;;;;5045784;28;20120;-85
2022/11/04 08:02:10;;;;;;;2.65;1.33;;;11.10;99.90;;;;;;5049432;28;20336;-85
2022/11/04 08:04:36;;;;;;;3.00;1.10;;;11.20;99.90;;;;;;5026723;28;20092;-85
2022/11/04 08:07:01;;;;;;;0.90;0.90;;;11.10;99.90;;;;;;5042948;28;20037;-85
2022/11/04 08:09:27;;;;;;;4.22;0.90;;;11.20;99.90;;;;;;5043384;28;20040;-85
2022/11/04 08:11:52;;;;;;;3.47;1.17;;;11.20;99.90;;;;;;5044063;28;20036;-85
2022/11/04 08:14:18;;;;;;;5.28;1.48;;;11.10;99.90;;;;;;5043754;28;20111;-86
2022/11/04 08:16:44;;;;;;;5.43;1.55;;;11.20;99.90;;;;;;5043297;28;20457;-87
2022/11/04 08:19:09;;;;;;;5.57;1.40;;;11.20;99.90;;;;;;5037632;28;20466;-85
2022/11/04 08:21:36;;;;;;;5.30;1.40;;;11.30;99.90;;;;;;5047935;28;20631;-83
2022/11/04 08:24:03;;;;;;;2.65;1.00;;;11.20;99.90;;;;;;5040457;28;20030;-86
2022/11/04 08:26:28;;;;;;;9.90;1.77;;;11.20;99.90;;;;;;5041390;28;20026;-86
2022/11/04 08:28:54;;;;;;;1.27;0.95;;;11.20;99.90;;;;;;5044106;28;20051;-85
2022/11/04 08:31:28;;;;;;;1.40;1.05;;;11.20;99.90;;;;;;5046589;28;20128;-84
2022/11/04 08:33:55;;;;;;;4.35;1.10;;;11.20;99.90;;;;;;5052325;28;20028;-84
2022/11/04 08:36:24;;;;;;;3.53;1.10;;;11.20;99.90;;;;;;5044931;28;20492;-81
2022/11/04 08:38:50;;;;;;;7.45;1.40;;;11.20;99.90;;;;;;5042385;28;20033;-83
2022/11/04 08:41:19;;;;;;;5.75;1.55;;;11.20;99.90;;;;;;5040215;28;20040;-87
2022/11/04 08:43:45;;;;;;;6.63;1.45;;;11.20;99.90;;;;;;5041075;28;20074;-85
2022/11/04 08:46:12;;;;;;;8.48;1.70;;;11.20;99.90;;;;;;5046210;28;20037;-84
2022/11/04 08:48:39;;;;;;;4.90;1.30;;;11.30;99.90;;;;;;5043815;28;20277;-85
2022/11/04 08:51:12;;;;;;;5.05;1.63;;;11.30;99.90;;;;;;5048921;28;20078;-84
2022/11/04 08:53:38;;;;;;;2.67;1.08;;;11.20;99.90;;;;;;5047499;28;20032;-85
2022/11/04 08:56:17;;;;;;;4.70;1.52;;;11.20;99.90;;;;;;5045123;28;20025;-84
2022/11/04 08:58:43;;;;;;;4.15;1.45;;;11.20;99.90;;;;;;5048663;28;20036;-84
2022/11/04 09:01:09;;;;;;;6.47;1.75;;;11.20;99.90;;;;;;5045227;28;20017;-85
2022/11/04 09:03:40;;;;;;;11.00;2.00;;;11.20;99.90;;;;;;5043298;28;20029;-82
2022/11/04 09:06:11;;;;;;;4.30;1.10;;;11.20;99.90;;;;;;5049100;28;20017;-82
2022/11/04 09:08:38;;;;;;;4.32;1.30;;;11.20;99.90;;;;;;5039648;28;20037;-84
2022/11/04 09:11:09;;;;;;;3.65;1.25;;;11.20;99.90;;;;;;5045572;28;20496;-84
2022/11/04 09:13:35;;;;;;;5.50;1.73;;;11.20;99.90;;;;;;5046060;28;20033;-85
2022/11/04 09:16:01;;;;;;;8.77;1.48;;;11.20;99.90;;;;;;5028292;28;20036;-83
2022/11/04 09:18:26;;;;;;;4.88;1.67;;;11.20;99.90;;;;;;5048375;28;20258;-86
2022/11/04 09:20:52;;;;;;;2.67;1.20;;;11.20;99.90;;;;;;5045865;28;20382;-84
2022/11/04 09:23:18;;;;;;;3.85;1.42;;;11.20;99.90;;;;;;5042196;28;20033;-84
2022/11/04 09:25:43;;;;;;;6.35;1.40;;;11.20;99.90;;;;;;5043523;28;20041;-84
2022/11/04 09:28:09;;;;;;;3.20;1.25;;;11.30;99.90;;;;;;5040180;28;20041;-84
2022/11/04 09:30:36;;;;;;;7.30;1.40;;;11.30;99.90;;;;;;5036605;28;20032;-83
2022/11/04 09:33:02;;;;;;;7.78;1.73;;;11.30;99.90;;;;;;5029683;28;20449;-84
2022/11/04 09:35:28;;;;;;;3.22;1.35;;;11.40;99.90;;;;;;5038460;28;20454;-84
2022/11/04 09:37:54;;;;;;;5.45;1.40;;;11.40;99.90;;;;;;5036177;28;20478;-84
2022/11/04 09:40:23;;;;;;;2.10;1.17;;;11.30;99.90;;;;;;5031877;28;20059;-82
2022/11/04 09:42:51;;;;;;;4.60;1.42;;;11.40;99.90;;;;;;5040385;28;20082;-84
2022/11/04 09:45:22;;;;;;;5.65;1.15;;;11.40;99.90;;;;;;5045161;28;20112;-83
2022/11/04 09:47:51;;;;;;;3.47;1.10;;;11.50;99.90;;;;;;5042440;28;20029;-85
2022/11/04 09:50:27;;;;;;;7.28;1.40;;;11.50;99.90;;;;;;5039700;28;20052;-84
2022/11/04 09:53:03;;;;;;;6.35;1.45;;;11.50;99.90;;;;;;5039075;28;20429;-82
2022/11/04 09:55:38;;;;;;;8.35;1.63;;;11.50;99.90;;;;;;5042029;28;20358;-85
2022/11/04 09:58:06;;;;;;;5.82;1.52;;;11.50;99.90;;;;;;5034096;28;20052;-85
2022/11/04 10:00:35;;;;;;;3.20;1.73;;;11.50;99.90;;;;;;5041376;28;20500;-84
2022/11/04 10:03:31;;;;;;;6.88;1.63;;;11.50;99.90;;;;;;5041681;28;20029;-84
2022/11/04 10:06:38;;;;;;;9.57;2.92;;;11.60;99.90;;;;;;5043606;28;20336;-82
2022/11/04 10:09:33;;;;;;;;;;;11.60;99.90;;;;;;4991985;28;20486;-84
2022/11/04 10:12:33;;;;;;;2.50;1.33;;;11.60;99.90;;;;;;5036858;28;19909;-86
2022/11/04 10:15:34;;;;;;;4.53;1.42;;;11.70;99.90;;;;;;5042249;28;20447;-84
2022/11/04 10:18:38;;;;;;;2.58;1.05;;;11.60;99.90;;;;;;5038294;28;20033;-83
2022/11/04 10:21:10;;;;;;;9.07;1.50;;;11.60;99.90;;;;;;5005744;28;20068;-84
2022/11/04 10:23:53;;;;;;;5.18;1.20;;;11.60;99.90;;;;;;5047354;28;20025;-81
2022/11/04 10:26:36;;;;;;;4.47;1.20;;;11.60;99.90;;;;;;5046428;28;20063;-84
2022/11/04 10:29:11;;;;;;;7.43;1.50;;;11.60;99.90;;;;;;5037058;28;20034;-87
2022/11/04 10:31:38;;;;;;;7.90;1.10;;;11.60;99.90;;;;;;5045247;28;20025;-84
2022/11/04 10:34:22;;;;;;;5.35;1.42;;;11.60;99.90;;;;;;5053283;28;20036;-84
2022/11/04 10:36:48;;;;;;;8.07;1.90;;;11.60;99.90;;;;;;5042350;28;20041;-85
2022/11/04 10:39:35;;;;;;;7.03;1.70;;;11.60;99.90;;;;;;5037905;28;20028;-85
2022/11/04 10:42:02;;;;;;;6.95;1.55;;;11.60;99.90;;;;;;5046620;28;20044;-87
2022/11/04 10:44:34;;;;;;;5.85;1.58;;;11.60;99.90;;;;;;5049375;28;20037;-86
2022/11/04 10:47:25;;;;;;;5.88;1.33;;;11.60;99.90;;;;;;5051423;28;20025;-85
2022/11/04 10:50:13;;;;;;;3.50;1.50;;;11.60;99.90;;;;;;5042473;28;20052;-81
2022/11/04 10:52:40;;;;;;;4.90;1.30;;;11.60;99.90;;;;;;5047689;28;20516;-83
2022/11/04 10:55:48;;;;;;;12.07;2.10;;;11.60;99.90;;;;;;5044955;28;20477;-81
2022/11/04 10:58:26;;;;;;;3.70;1.48;;;11.60;99.90;;;;;;5037998;28;20041;-84
2022/11/04 11:01:33;;;;;;;4.07;1.63;;;11.60;99.90;;;;;;5047991;28;20037;-81
2022/11/04 11:04:00;;;;;;;6.25;1.50;;;11.60;99.90;;;;;;5037813;28;20570;-85
2022/11/04 11:06:35;;;;;;;5.97;2.65;;;11.60;99.90;;;;;;5044355;28;20478;-84
2022/11/04 11:09:11;;;;;;;6.90;2.10;;;11.60;99.90;;;;;;5046855;28;20037;-81
2022/11/04 11:11:46;;;;;;;5.53;1.60;;;11.60;99.90;;;;;;5041302;28;20044;-85
2022/11/04 11:14:26;;;;;;;7.65;4.25;;;11.60;99.90;;;;;;5044837;28;20014;-85
2022/11/04 11:16:52;;;;;;;6.68;2.13;;;11.60;99.90;;;;;;5045293;28;20037;-84
2022/11/04 11:19:21;;;;;;;11.25;2.20;;;11.60;99.90;;;;;;5044658;28;20036;-85
2022/11/04 11:21:54;;;;;;;6.57;2.25;;;11.60;99.90;;;;;;5040916;28;20035;-82
2022/11/04 11:24:29;;;;;;;12.90;2.00;;;11.60;99.90;;;;;;5042518;28;20528;-87
2022/11/04 11:26:57;;;;;;;7.15;1.52;;;11.60;99.90;;;;;;5041348;28;20037;-84
2022/11/04 11:29:30;;;;;;;6.38;1.50;;;11.60;99.90;;;;;;5039759;28;20059;-86
2022/11/04 11:31:58;;;;;;;8.73;1.92;;;11.60;99.90;;;;;;5023241;28;20037;-84
2022/11/04 11:34:36;;;;;;;9.55;2.20;;;11.60;99.90;;;;;;5043153;28;20033;-85
2022/11/04 11:37:03;;;;;;;9.13;1.50;;;11.70;99.90;;;;;;5040731;28;20025;-85
2022/11/04 11:39:32;;;;;;;9.30;2.05;;;11.70;99.90;;;;;;5039681;28;20029;-84
2022/11/04 11:42:03;;;;;;;4.25;1.70;;;11.70;99.90;;;;;;5045764;28;20056;-85
2022/11/04 11:44:39;;;;;;;13.80;6.10;;;11.70;99.90;;;;;;5045377;28;20036;-84
2022/11/04 11:47:16;;;;;;;9.98;2.83;;;11.70;99.90;;;;;;5050838;28;20041;-84
2022/11/04 11:49:42;;;;;;;22.88;10.18;;;11.70;99.90;;;;;;5039863;28;20507;-85
2022/11/04 11:52:26;;;;;;;40.45;19.83;;;11.70;99.90;;;;;;5031649;28;20033;-85
2022/11/04 11:54:57;;;;;;;17.83;9.63;;;11.70;99.90;;;;;;5032301;28;20033;-86
2022/11/04 11:57:38;;;;;;;7.57;3.35;;;11.70;99.90;;;;;;5031147;28;20041;-84
2022/11/04 12:00:09;;;;;;;7.82;4.78;;;11.70;99.90;;;;;;5035769;28;20055;-85
2022/11/04 12:03:19;;;;;;;13.52;7.32;;;11.70;99.90;;;;;;5000910;28;20279;-83
2022/11/04 12:06:13;;;;;;;10.05;4.65;;;11.70;99.90;;;;;;5031737;28;20155;-84
2022/11/04 12:09:03;;;;;;;10.05;3.53;;;11.70;99.90;;;;;;5042139;28;20040;-85
2022/11/04 12:12:01;;;;;;;5.43;2.33;;;11.80;99.90;;;;;;5038044;28;20032;-85
2022/11/04 12:14:32;;;;;;;3.97;1.67;;;11.70;99.90;;;;;;5028129;28;20094;-85
2022/11/04 12:17:17;;;;;;;6.15;2.08;;;11.70;99.90;;;;;;5035564;28;20026;-85
2022/11/04 12:19:53;;;;;;;8.80;2.50;;;11.70;99.90;;;;;;5046980;28;20024;-86
2022/11/04 12:22:34;;;;;;;7.13;2.13;;;11.70;99.90;;;;;;5029762;28;20025;-85
2022/11/04 12:25:01;;;;;;;45.55;16.77;;;11.80;99.90;;;;;;5034248;28;20029;-84
2022/11/04 12:27:36;;;;;;;56.53;17.50;;;11.90;99.90;;;;;;5048265;28;20397;-86
2022/11/04 12:30:16;;;;;;;8.68;2.60;;;11.90;99.90;;;;;;5048505;28;20048;-85
2022/11/04 12:33:17;;;;;;;64.38;21.98;;;11.90;99.90;;;;;;5036301;28;20041;-85
2022/11/04 12:35:56;;;;;;;8.88;2.45;;;12.00;99.90;;;;;;5032163;28;20082;-84
2022/11/04 12:38:41;;;;;;;20.35;5.78;;;12.10;99.90;;;;;;5050464;28;20032;-83
2022/11/04 12:41:35;;;;;;;20.25;6.78;;;12.10;99.90;;;;;;5047780;28;20031;-84
2022/11/04 12:44:18;;;;;;;39.45;11.70;;;12.20;99.90;;;;;;5036103;28;20021;-84
2022/11/04 12:46:57;;;;;;;30.13;11.50;;;12.30;99.90;;;;;;5038862;28;20032;-84
2022/11/04 12:49:29;;;;;;;8.27;3.15;;;12.30;99.90;;;;;;5041885;28;20037;-84
2022/11/04 12:52:13;;;;;;;16.70;4.15;;;12.30;99.90;;;;;;5023397;28;20079;-84
2022/11/04 12:55:00;;;;;;;10.63;1.88;;;12.40;99.90;;;;;;5043044;28;20037;-85
2022/11/04 12:57:45;;;;;;;7.00;1.70;;;12.40;99.90;;;;;;5033351;28;20178;-85
2022/11/04 13:00:15;;;;;;;9.48;3.38;;;12.40;99.90;;;;;;5035821;28;20029;-85
2022/11/04 13:02:44;;;;;;;12.80;2.28;;;12.50;99.90;;;;;;5034580;28;20025;-85
2022/11/04 13:05:46;;;;;;;10.02;2.38;;;12.50;99.90;;;;;;5047574;28;20086;-86
2022/11/04 13:08:18;;;;;;;8.45;1.88;;;12.60;99.90;;;;;;5041395;28;20029;-84
2022/11/04 13:10:52;;;;;;;10.48;2.00;;;12.60;99.90;;;;;;5032860;28;20036;-84
2022/11/04 13:13:25;;;;;;;5.57;1.60;;;12.50;99.90;;;;;;5037635;28;20025;-84
2022/11/04 13:15:56;;;;;;;9.30;1.98;;;12.50;99.90;;;;;;5048207;28;20216;-83
2022/11/04 13:18:26;;;;;;;7.57;2.33;;;12.40;99.90;;;;;;5031344;28;20025;-83
2022/11/04 13:20:55;;;;;;;8.05;1.73;;;12.30;99.90;;;;;;5014069;28;20378;-83
2022/11/04 13:23:49;;;;;;;6.90;1.83;;;12.30;99.90;;;;;;5020114;28;20014;-85
2022/11/04 13:26:16;;;;;;;7.22;2.33;;;12.20;99.90;;;;;;5037113;28;20021;-85
2022/11/04 13:28:44;;;;;;;4.03;1.35;;;12.20;99.90;;;;;;5035947;28;20466;-84
2022/11/04 13:31:15;;;;;;;4.88;2.10;;;12.10;99.90;;;;;;5049514;28;20021;-84
2022/11/04 13:34:10;;;;;;;11.60;2.30;;;12.10;99.90;;;;;;5032571;28;20017;-85
2022/11/04 13:36:41;;;;;;;4.60;1.42;;;12.00;99.90;;;;;;5047846;28;20040;-85